createdAt,value
2023-03-27T00:00:00.154Z, 0
2023-03-27T00:02:00.223Z, 0
2023-03-27T00:04:00.191Z, 0
2023-03-27T00:06:00.146Z, 0
2023-03-27T00:08:00.115Z, 0
2023-03-27T00:10:00.186Z, 0
2023-03-27T00:12:00.128Z, 0
2023-03-27T00:14:00.120Z, 0
2023-03-27T00:16:00.115Z, 0
2023-03-27T00:18:00.162Z, 0
2023-03-27T00:20:00.161Z, 0
2023-03-27T00:22:00.121Z, 0
2023-03-27T00:24:00.128Z, 0
2023-03-27T00:26:00.104Z, 0
2023-03-27T00:28:00.102Z, 0
2023-03-27T00:30:00.108Z, 0
2023-03-27T00:32:00.078Z, 0
2023-03-27T00:34:00.054Z, 0
2023-03-27T00:36:00.181Z, 0
2023-03-27T00:38:00.089Z, 0
2023-03-27T00:40:00.044Z, 0
2023-03-27T00:42:00.105Z, 0
2023-03-27T00:44:00.068Z, 0
2023-03-27T00:46:00.165Z, 0
2023-03-27T00:48:00.119Z, 0
2023-03-27T00:50:00.076Z, 0
2023-03-27T00:52:00.097Z, 0
2023-03-27T00:54:00.131Z, 0
2023-03-27T00:56:00.106Z, 0
2023-03-27T00:58:00.137Z, 0
2023-03-27T01:00:00.201Z, 0
2023-03-27T01:02:00.163Z, 0
2023-03-27T01:04:00.113Z, 0
2023-03-27T01:06:00.115Z, 0
2023-03-27T01:08:01.815Z, 0
2023-03-27T01:10:00.142Z, 0
2023-03-27T01:12:00.123Z, 0
2023-03-27T01:14:00.117Z, 0
2023-03-27T01:16:00.175Z, 0
2023-03-27T01:18:00.198Z, 0
2023-03-27T01:20:00.148Z, 0
2023-03-27T01:22:00.135Z, 0
2023-03-27T01:24:00.973Z, 0
2023-03-27T01:26:00.110Z, 0
2023-03-27T01:28:00.105Z, 0
2023-03-27T01:30:00.102Z, 0
2023-03-27T01:32:00.049Z, 0
2023-03-27T01:34:00.113Z, 0
2023-03-27T01:36:00.116Z, 0
2023-03-27T01:38:00.049Z, 0
2023-03-27T01:40:00.109Z, 0
2023-03-27T01:42:00.094Z, 0
2023-03-27T01:44:00.058Z, 0
2023-03-27T01:46:00.052Z, 0
2023-03-27T01:48:00.300Z, 0
2023-03-27T01:50:00.090Z, 0
2023-03-27T01:52:00.066Z, 0
2023-03-27T01:54:00.099Z, 0
2023-03-27T01:56:00.149Z, 0
2023-03-27T01:58:00.107Z, 0
2023-03-27T02:00:17.275Z, 0
2023-03-27T02:02:00.131Z, 0
2023-03-27T02:04:00.149Z, 0
2023-03-27T02:06:00.135Z, 0
2023-03-27T02:08:00.128Z, 0
2023-03-27T02:10:00.255Z, 0
2023-03-27T02:12:00.129Z, 0
2023-03-27T02:14:00.110Z, 0
2023-03-27T02:16:00.170Z, 0
2023-03-27T02:18:00.313Z, 0
2023-03-27T02:20:00.182Z, 0
2023-03-27T02:22:00.113Z, 0
2023-03-27T02:24:00.115Z, 0
2023-03-27T02:26:00.138Z, 0
2023-03-27T02:28:00.101Z, 0
2023-03-27T02:30:00.102Z, 0
2023-03-27T02:32:00.122Z, 0
2023-03-27T02:34:00.066Z, 0
2023-03-27T02:36:00.157Z, 0
2023-03-27T02:38:00.094Z, 0
2023-03-27T02:40:00.051Z, 0
2023-03-27T02:42:00.113Z, 0
2023-03-27T02:44:00.072Z, 0
2023-03-27T02:46:00.153Z, 0
2023-03-27T02:48:00.136Z, 0
2023-03-27T02:50:00.108Z, 0
2023-03-27T02:52:00.057Z, 0
2023-03-27T02:54:00.114Z, 0
2023-03-27T02:56:00.126Z, 0
2023-03-27T02:58:00.121Z, 0
2023-03-27T03:00:00.152Z, 0
2023-03-27T03:02:00.158Z, 0
2023-03-27T03:04:00.141Z, 0
2023-03-27T03:06:00.128Z, 0
2023-03-27T03:08:00.135Z, 0
2023-03-27T03:10:00.183Z, 0
2023-03-27T03:12:00.139Z, 0
2023-03-27T03:14:00.118Z, 0
2023-03-27T03:16:00.133Z, 0
2023-03-27T03:18:00.219Z, 0
2023-03-27T03:20:00.151Z, 0
2023-03-27T03:22:00.119Z, 0
2023-03-27T03:24:00.131Z, 0
2023-03-27T03:26:00.105Z, 0
2023-03-27T03:28:00.112Z, 0
2023-03-27T03:30:00.125Z, 0
2023-03-27T03:32:00.102Z, 0
2023-03-27T03:34:00.125Z, 0
2023-03-27T03:36:00.159Z, 0
2023-03-27T03:38:00.113Z, 0
2023-03-27T03:40:00.123Z, 0
2023-03-27T03:42:00.144Z, 0
2023-03-27T03:44:00.099Z, 0
2023-03-27T03:46:00.253Z, 0
2023-03-27T03:48:00.148Z, 0
2023-03-27T03:50:00.121Z, 0
2023-03-27T03:52:03.634Z, 0
2023-03-27T03:54:00.106Z, 0
2023-03-27T03:56:00.103Z, 0
2023-03-27T03:58:00.160Z, 0
2023-03-27T04:00:00.160Z, 0
2023-03-27T04:02:00.176Z, 0
2023-03-27T04:04:00.124Z, 0
2023-03-27T04:06:00.128Z, 0
2023-03-27T04:08:00.217Z, 0
2023-03-27T04:10:00.127Z, 0
2023-03-27T04:12:00.135Z, 0
2023-03-27T04:14:00.120Z, 0
2023-03-27T04:16:00.126Z, 0
2023-03-27T04:18:00.351Z, 0
2023-03-27T04:20:00.137Z, 0
2023-03-27T04:22:00.114Z, 0
2023-03-27T04:24:00.106Z, 0
2023-03-27T04:26:00.251Z, 0
2023-03-27T04:28:00.093Z, 0
2023-03-27T04:30:00.153Z, 0
2023-03-27T04:32:00.077Z, 0
2023-03-27T04:34:00.088Z, 0
2023-03-27T04:36:07.238Z, 0
2023-03-27T04:38:00.121Z, 0
2023-03-27T04:40:00.124Z, 0
2023-03-27T04:42:00.128Z, 0
2023-03-27T04:44:00.085Z, 0
2023-03-27T04:46:00.145Z, 0
2023-03-27T04:48:00.204Z, 0
2023-03-27T04:50:00.225Z, 0
2023-03-27T04:52:00.111Z, 0
2023-03-27T04:54:00.100Z, 0
2023-03-27T04:56:00.133Z, 0
2023-03-27T04:58:00.113Z, 0
2023-03-27T05:00:00.288Z, 0.01
2023-03-27T05:02:00.135Z, 0.01
2023-03-27T05:04:00.248Z, 0.01
2023-03-27T05:06:00.128Z, 0.02
2023-03-27T05:08:00.108Z, 0.02
2023-03-27T05:10:00.162Z, 0.03
2023-03-27T05:12:00.197Z, 0.03
2023-03-27T05:14:00.133Z, 0.04
2023-03-27T05:16:00.139Z, 0.05
2023-03-27T05:18:00.209Z, 0.06
2023-03-27T05:20:00.202Z, 0.07
2023-03-27T05:22:00.153Z, 0.08
2023-03-27T05:24:00.199Z, 0.07
2023-03-27T05:26:00.986Z, 0.08
2023-03-27T05:28:00.081Z, 0.11
2023-03-27T05:30:00.093Z, 0.13
2023-03-27T05:32:01.425Z, 0.14
2023-03-27T05:34:00.084Z, 0.2
2023-03-27T05:36:00.145Z, 0.24
2023-03-27T05:38:00.052Z, 0.26
2023-03-27T05:40:00.023Z, 0.29
2023-03-27T05:42:00.100Z, 0.3
2023-03-27T05:44:00.107Z, 0.31
2023-03-27T05:46:00.177Z, 0.32
2023-03-27T05:48:00.134Z, 0.36
2023-03-27T05:50:00.068Z, 0.41
2023-03-27T05:52:00.154Z, 0.43
2023-03-27T05:54:00.104Z, 0.44
2023-03-27T05:56:03.119Z, 0.5
2023-03-27T05:58:00.133Z, 0.29
2023-03-27T06:00:00.193Z, 0.31
2023-03-27T06:02:00.132Z, 0.35
2023-03-27T06:04:00.241Z, 0.45
2023-03-27T06:06:00.320Z, 0.62
2023-03-27T06:08:00.102Z, 0.88
2023-03-27T06:10:00.141Z, 1.06
2023-03-27T06:12:00.126Z, 1.09
2023-03-27T06:14:00.155Z, 1.16
2023-03-27T06:16:00.392Z, 1.24
2023-03-27T06:18:00.173Z, 1.27
2023-03-27T06:20:00.205Z, 1.39
2023-03-27T06:22:00.152Z, 1.45
2023-03-27T06:24:00.162Z, 1.48
2023-03-27T06:26:00.110Z, 1.54
2023-03-27T06:28:00.111Z, 1.64
2023-03-27T06:30:00.120Z, 1.74
2023-03-27T06:32:00.054Z, 1.82
2023-03-27T06:34:00.113Z, 1.97
2023-03-27T06:36:00.828Z, 2.15
2023-03-27T06:38:00.045Z, 2.3
2023-03-27T06:40:00.068Z, 2.56
2023-03-27T06:42:00.087Z, 2.46
2023-03-27T06:44:00.055Z, 2.14
2023-03-27T06:46:00.221Z, 1.92
2023-03-27T06:48:17.826Z, 1.82
2023-03-27T06:50:00.048Z, 1.52
2023-03-27T06:52:00.043Z, 1.79
2023-03-27T06:54:00.046Z, 2.24
2023-03-27T06:56:00.244Z, 2.1
2023-03-27T06:58:00.269Z, 1.99
2023-03-27T07:00:02.310Z, 1.8
2023-03-27T07:02:00.265Z, 1.81
2023-03-27T07:04:00.155Z, 1.9
2023-03-27T07:06:00.442Z, 1.95
2023-03-27T07:08:05.467Z, 1.93
2023-03-27T07:10:00.172Z, 1.97
2023-03-27T07:12:00.127Z, 2.03
2023-03-27T07:14:00.135Z, 2.07
2023-03-27T07:16:00.135Z, 2.24
2023-03-27T07:18:00.228Z, 2.43
2023-03-27T07:20:00.175Z, 2.26
2023-03-27T07:22:00.328Z, 2.36
2023-03-27T07:24:00.123Z, 2.32
2023-03-27T07:26:00.242Z, 2.44
2023-03-27T07:28:00.077Z, 2.4
2023-03-27T07:30:00.167Z, 2.44
2023-03-27T07:32:04.317Z, 2.4
2023-03-27T07:34:00.231Z, 2.55
2023-03-27T07:36:00.334Z, 2.52
2023-03-27T07:38:00.056Z, 2.46
2023-03-27T07:40:00.078Z, 2.61
2023-03-27T07:42:00.098Z, 2.55
2023-03-27T07:44:00.047Z, 2.6
2023-03-27T07:46:00.349Z, 2.63
2023-03-27T07:48:00.183Z, 2.65
2023-03-27T07:50:00.053Z, 2.71
2023-03-27T07:52:00.039Z, 2.85
2023-03-27T07:54:00.056Z, 2.92
2023-03-27T07:56:00.138Z, 3.04
2023-03-27T07:58:02.979Z, 3
2023-03-27T08:00:00.156Z, 3.07
2023-03-27T08:02:00.125Z, 3.19
2023-03-27T08:04:00.247Z, 1.5
2023-03-27T08:06:00.534Z, 3.27
2023-03-27T08:08:00.125Z, 3.27
2023-03-27T08:10:00.181Z, 3.29
2023-03-27T08:12:00.121Z, 3.33
2023-03-27T08:14:00.139Z, 3.4
2023-03-27T08:16:00.103Z, 2.25
2023-03-27T08:18:00.169Z, 2.33
2023-03-27T08:20:00.131Z, 2.06
2023-03-27T08:22:00.134Z, 2.14
2023-03-27T08:24:00.240Z, 3.61
2023-03-27T08:26:00.058Z, 3.58
2023-03-27T08:28:00.094Z, 3.72
2023-03-27T08:30:00.137Z, 3.77
2023-03-27T08:32:00.085Z, 3.84
2023-03-27T08:34:00.104Z, 4.05
2023-03-27T08:36:00.256Z, 4.18
2023-03-27T08:38:00.057Z, 4.47
2023-03-27T08:40:00.057Z, 4.74
2023-03-27T08:42:00.109Z, 3.57
2023-03-27T08:44:00.095Z, 2.48
2023-03-27T08:46:00.336Z, 1.84
2023-03-27T08:48:00.125Z, 1.36
2023-03-27T08:50:00.100Z, 1.18
2023-03-27T08:52:00.067Z, 1.71
2023-03-27T08:54:00.063Z, 3.56
2023-03-27T08:56:00.102Z, 4.52
2023-03-27T08:58:00.115Z, 4.54
2023-03-27T09:00:00.144Z, 4.53
2023-03-27T09:02:00.204Z, 4.19
2023-03-27T09:04:00.332Z, 4.62
2023-03-27T09:06:00.108Z, 4.49
2023-03-27T09:08:00.133Z, 4.56
2023-03-27T09:10:00.170Z, 4.59
2023-03-27T09:12:00.136Z, 4.74
2023-03-27T09:14:00.121Z, 4.94
2023-03-27T09:16:00.404Z, 5.3
2023-03-27T09:18:00.289Z, 1.35
2023-03-27T09:20:00.148Z, 5.12
2023-03-27T09:22:00.134Z, 5.41
2023-03-27T09:24:00.177Z, 5.22
2023-03-27T09:26:00.058Z, 5.4
2023-03-27T09:28:00.061Z, 5.43
2023-03-27T09:30:05.317Z, 1.67
2023-03-27T09:32:00.043Z, 2.87
2023-03-27T09:34:00.088Z, 2.55
2023-03-27T09:36:00.417Z, 1.97
2023-03-27T09:38:00.068Z, 2.16
2023-03-27T09:40:00.128Z, 2.17
2023-03-27T09:42:00.057Z, 1.64
2023-03-27T09:44:00.047Z, 2.28
2023-03-27T09:46:00.071Z, 3.3
2023-03-27T09:48:00.113Z, 1.89
2023-03-27T09:50:00.049Z, 1.8
2023-03-27T09:52:00.071Z, 2.14
2023-03-27T09:54:00.050Z, 6.4
2023-03-27T09:56:02.460Z, 1.74
2023-03-27T09:58:00.135Z, 1.95
2023-03-27T10:00:00.162Z, 1.71
2023-03-27T10:02:00.120Z, 1.97
2023-03-27T10:04:00.192Z, 7.11
2023-03-27T10:06:00.117Z, 3.4
2023-03-27T10:08:00.113Z, 6.66
2023-03-27T10:10:00.141Z, 6.34
2023-03-27T10:12:00.130Z, 6.27
2023-03-27T10:14:00.132Z, 5.98
2023-03-27T10:16:00.130Z, 6.08
2023-03-27T10:18:00.287Z, 6.31
2023-03-27T10:20:00.200Z, 6.35
2023-03-27T10:22:00.132Z, 5.97
2023-03-27T10:24:00.159Z, 2.63
2023-03-27T10:26:00.115Z, 5.26
2023-03-27T10:28:00.116Z, 4.57
2023-03-27T10:30:00.172Z, 3.26
2023-03-27T10:32:00.159Z, 4.97
2023-03-27T10:34:05.131Z, 6.24
2023-03-27T10:36:00.132Z, 6.5
2023-03-27T10:38:00.110Z, 2.86
2023-03-27T10:40:00.131Z, 2.9
2023-03-27T10:42:00.110Z, 4.15
2023-03-27T10:44:00.113Z, 2.21
2023-03-27T10:46:00.152Z, 1.4
2023-03-27T10:48:00.139Z, 1.4
2023-03-27T10:50:00.079Z, 0.99
2023-03-27T10:52:00.111Z, 0.79
2023-03-27T10:54:00.203Z, 1.14
2023-03-27T10:56:00.124Z, 1.89
2023-03-27T10:58:00.101Z, 1.72
2023-03-27T11:00:00.142Z, 1.61
2023-03-27T11:02:00.157Z, 1.69
2023-03-27T11:04:00.128Z, 3.73
2023-03-27T11:06:00.137Z, 3.95
2023-03-27T11:08:00.137Z, 7.27
2023-03-27T11:10:00.114Z, 6.7
2023-03-27T11:12:00.121Z, 7.08
2023-03-27T11:14:00.132Z, 6.96
2023-03-27T11:16:00.106Z, 7.01
2023-03-27T11:18:00.150Z, 6.69
2023-03-27T11:20:00.136Z, 6.91
2023-03-27T11:22:00.102Z, 6.96
2023-03-27T11:24:00.435Z, 7.37
2023-03-27T11:26:00.213Z, 7.03
2023-03-27T11:28:00.054Z, 4.93
2023-03-27T11:30:00.087Z, 3.12
2023-03-27T11:32:00.123Z, 2.5
2023-03-27T11:34:00.094Z, 2.69
2023-03-27T11:36:00.162Z, 2.5
2023-03-27T11:38:00.050Z, 2.55
2023-03-27T11:40:00.038Z, 1.94
2023-03-27T11:42:00.062Z, 7.76
2023-03-27T11:44:00.041Z, 7.1
2023-03-27T11:46:00.063Z, 5.01
2023-03-27T11:48:00.136Z, 4.19
2023-03-27T11:50:00.039Z, 2.83
2023-03-27T11:52:00.024Z, 1.56
2023-03-27T11:54:00.064Z, 2.34
2023-03-27T11:56:00.098Z, 8.18
2023-03-27T11:58:00.113Z, 5.23
2023-03-27T12:00:00.194Z, 8.35
2023-03-27T12:02:00.196Z, 7.89
2023-03-27T12:04:00.230Z, 7.95
2023-03-27T12:06:00.124Z, 7.76
2023-03-27T12:08:00.142Z, 8.3
2023-03-27T12:10:00.105Z, 5.67
2023-03-27T12:12:00.139Z, 2.39
2023-03-27T12:14:02.121Z, 2.13
2023-03-27T12:16:00.208Z, 2.24
2023-03-27T12:18:00.218Z, 5.5
2023-03-27T12:20:00.134Z, 7.79
2023-03-27T12:22:00.099Z, 7.81
2023-03-27T12:24:00.170Z, 3.66
2023-03-27T12:26:00.091Z, 1.47
2023-03-27T12:28:00.104Z, 1.38
2023-03-27T12:30:00.090Z, 1.18
2023-03-27T12:32:00.120Z, 1.19
2023-03-27T12:34:00.084Z, 5.24
2023-03-27T12:36:00.220Z, 4.88
2023-03-27T12:38:00.078Z, 4.53
2023-03-27T12:40:00.043Z, 4.53
2023-03-27T12:42:00.051Z, 4.37
2023-03-27T12:44:00.156Z, 4.25
2023-03-27T12:46:00.063Z, 4.38
2023-03-27T12:48:00.175Z, 4.33
2023-03-27T12:50:00.065Z, 4.12
2023-03-27T12:52:00.035Z, 4.68
2023-03-27T12:54:00.098Z, 4.83
2023-03-27T12:56:00.084Z, 3.15
2023-03-27T12:58:00.265Z, 3.67
2023-03-27T13:00:00.192Z, 1.89
2023-03-27T13:02:00.190Z, 1.08
2023-03-27T13:04:00.209Z, 0.48
2023-03-27T13:06:00.134Z, 0.35
2023-03-27T13:08:00.137Z, 0.43
2023-03-27T13:10:00.129Z, 0.87
2023-03-27T13:12:00.143Z, 1.81
2023-03-27T13:14:00.166Z, 1.83
2023-03-27T13:16:00.378Z, 2.63
2023-03-27T13:18:00.193Z, 5.54
2023-03-27T13:20:00.184Z, 7.14
2023-03-27T13:22:00.141Z, 8.74
2023-03-27T13:24:00.139Z, 4.52
2023-03-27T13:26:00.134Z, 3.2
2023-03-27T13:28:00.136Z, 2.19
2023-03-27T13:30:00.142Z, 2.16
2023-03-27T13:32:00.041Z, 2.1
2023-03-27T13:34:00.102Z, 2.07
2023-03-27T13:36:00.499Z, 2.16
2023-03-27T13:38:00.036Z, 2.08
2023-03-27T13:40:00.073Z, 2.27
2023-03-27T13:42:02.198Z, 2.06
2023-03-27T13:44:00.058Z, 2.67
2023-03-27T13:46:00.199Z, 2.6
2023-03-27T13:48:00.169Z, 3.34
2023-03-27T13:50:00.132Z, 1.48
2023-03-27T13:52:00.057Z, 1.61
2023-03-27T13:54:00.114Z, 2.24
2023-03-27T13:56:00.144Z, 5.5
2023-03-27T13:58:00.114Z, 1.68
2023-03-27T14:00:00.192Z, 1.46
2023-03-27T14:02:00.151Z, 1.13
2023-03-27T14:04:00.207Z, 0.53
2023-03-27T14:06:00.371Z, 0.32
2023-03-27T14:08:00.128Z, 0.3
2023-03-27T14:10:00.184Z, 0.29
2023-03-27T14:12:00.126Z, 0.43
2023-03-27T14:14:00.105Z, 0.55
2023-03-27T14:16:00.369Z, 0.37
2023-03-27T14:18:00.166Z, 0.33
2023-03-27T14:20:00.118Z, 0.85
2023-03-27T14:22:00.124Z, 1.09
2023-03-27T14:24:00.113Z, 1.21
2023-03-27T14:26:00.103Z, 1.31
2023-03-27T14:28:00.124Z, 1.57
2023-03-27T14:30:00.150Z, 1.32
2023-03-27T14:32:00.219Z, 1.57
2023-03-27T14:34:00.263Z, 1.22
2023-03-27T14:36:00.332Z, 0.54
2023-03-27T14:38:00.120Z, 0.41
2023-03-27T14:40:00.076Z, 0.57
2023-03-27T14:42:00.103Z, 1.24
2023-03-27T14:44:00.117Z, 4.23
2023-03-27T14:46:00.403Z, 4.43
2023-03-27T14:48:00.149Z, 4.31
2023-03-27T14:50:00.135Z, 3.84
2023-03-27T14:52:00.101Z, 3.56
2023-03-27T14:54:00.110Z, 3.4
2023-03-27T14:56:00.391Z, 3.28
2023-03-27T14:58:00.140Z, 3.22
2023-03-27T15:00:00.209Z, 3.21
2023-03-27T15:02:00.130Z, 3.17
2023-03-27T15:04:00.149Z, 3.14
2023-03-27T15:06:00.204Z, 3.01
2023-03-27T15:08:00.130Z, 3.01
2023-03-27T15:10:00.149Z, 2.95
2023-03-27T15:12:00.138Z, 2.88
2023-03-27T15:14:00.123Z, 2.91
2023-03-27T15:16:00.239Z, 2.91
2023-03-27T15:18:00.196Z, 2.89
2023-03-27T15:20:00.174Z, 2.81
2023-03-27T15:22:01.323Z, 2.75
2023-03-27T15:24:00.194Z, 2.38
2023-03-27T15:26:00.255Z, 2.22
2023-03-27T15:28:00.095Z, 1.18
2023-03-27T15:30:00.206Z, 0.67
2023-03-27T15:32:00.093Z, 0.44
2023-03-27T15:34:00.089Z, 0.22
2023-03-27T15:36:00.334Z, 0.29
2023-03-27T15:38:00.094Z, 0.59
2023-03-27T15:40:00.173Z, 1.24
2023-03-27T15:42:00.101Z, 1.41
2023-03-27T15:44:00.046Z, 2.72
2023-03-27T15:46:00.533Z, 1.38
2023-03-27T15:48:00.185Z, 2.58
2023-03-27T15:50:00.057Z, 2.27
2023-03-27T15:52:00.061Z, 2.1
2023-03-27T15:54:00.058Z, 0.78
2023-03-27T15:56:00.278Z, 0.91
2023-03-27T15:58:00.143Z, 0.77
2023-03-27T16:00:00.145Z, 0.73
2023-03-27T16:02:00.180Z, 1.82
2023-03-27T16:04:02.424Z, 1.82
2023-03-27T16:06:00.321Z, 1.76
2023-03-27T16:08:00.115Z, 1.67
2023-03-27T16:10:00.156Z, 1.66
2023-03-27T16:12:00.134Z, 1.61
2023-03-27T16:14:00.099Z, 1.54
2023-03-27T16:16:00.474Z, 1.53
2023-03-27T16:18:00.203Z, 1.47
2023-03-27T16:20:00.122Z, 1.41
2023-03-27T16:22:00.126Z, 1.37
2023-03-27T16:24:00.158Z, 1.31
2023-03-27T16:26:00.271Z, 1.1
2023-03-27T16:28:00.093Z, 0.68
2023-03-27T16:30:00.170Z, 1.23
2023-03-27T16:32:00.207Z, 0.93
2023-03-27T16:34:00.059Z, 0.67
2023-03-27T16:36:00.537Z, 0.48
2023-03-27T16:38:00.100Z, 0.33
2023-03-27T16:40:00.050Z, 0.19
2023-03-27T16:42:00.115Z, 0.1
2023-03-27T16:44:00.091Z, 0.07
2023-03-27T16:46:00.271Z, 0.06
2023-03-27T16:48:00.127Z, 0.07
2023-03-27T16:50:10.257Z, 0.29
2023-03-27T16:52:00.113Z, 0.48
2023-03-27T16:54:00.071Z, 0.53
2023-03-27T16:56:00.363Z, 0.46
2023-03-27T16:58:00.130Z, 0.41
2023-03-27T17:00:00.157Z, 0.4
2023-03-27T17:02:00.124Z, 0.38
2023-03-27T17:04:00.116Z, 0.36
2023-03-27T17:06:00.121Z, 0.35
2023-03-27T17:08:00.108Z, 0.36
2023-03-27T17:10:00.175Z, 0.33
2023-03-27T17:12:00.152Z, 0.33
2023-03-27T17:14:00.126Z, 0.31
2023-03-27T17:16:00.383Z, 0.29
2023-03-27T17:18:00.288Z, 0.3
2023-03-27T17:20:00.135Z, 0.29
2023-03-27T17:22:00.153Z, 0.27
2023-03-27T17:24:01.051Z, 0.23
2023-03-27T17:26:00.084Z, 0.21
2023-03-27T17:28:00.062Z, 0.19
2023-03-27T17:30:00.131Z, 0.18
2023-03-27T17:32:00.118Z, 0.16
2023-03-27T17:34:00.049Z, 0.14
2023-03-27T17:36:00.332Z, 0.13
2023-03-27T17:38:00.042Z, 0.12
2023-03-27T17:40:00.027Z, 0.11
2023-03-27T17:42:00.061Z, 0.09
2023-03-27T17:44:00.064Z, 0.08
2023-03-27T17:46:00.422Z, 0.07
2023-03-27T17:48:00.156Z, 0.06
2023-03-27T17:50:00.100Z, 0.05
2023-03-27T17:52:00.070Z, 0.04
2023-03-27T17:54:00.104Z, 0.04
2023-03-27T17:56:00.255Z, 0.03
2023-03-27T17:58:08.804Z, 0.02
2023-03-27T18:00:00.131Z, 0.02
2023-03-27T18:02:00.145Z, 0.01
2023-03-27T18:04:00.260Z, 0.01
2023-03-27T18:06:00.109Z, 0.01
2023-03-27T18:08:00.105Z, 0.01
2023-03-27T18:10:00.174Z, 0
2023-03-27T18:12:00.139Z, 0
2023-03-27T18:14:00.128Z, 0
2023-03-27T18:16:00.422Z, 0
2023-03-27T18:18:00.137Z, 0
2023-03-27T18:20:00.182Z, 0
2023-03-27T18:22:00.142Z, 0
2023-03-27T18:24:00.176Z, 0
2023-03-27T18:26:00.064Z, 0
2023-03-27T18:28:00.093Z, 0
2023-03-27T18:30:00.060Z, 0
2023-03-27T18:32:00.284Z, 0
2023-03-27T18:34:00.072Z, 0
2023-03-27T18:36:00.370Z, 0
2023-03-27T18:38:00.081Z, 0
2023-03-27T18:40:00.044Z, 0
2023-03-27T18:42:00.061Z, 0
2023-03-27T18:44:00.044Z, 0
2023-03-27T18:46:00.377Z, 0
2023-03-27T18:48:00.061Z, 0
2023-03-27T18:50:00.050Z, 0
2023-03-27T18:52:00.051Z, 0
2023-03-27T18:54:00.057Z, 0
2023-03-27T18:56:00.353Z, 0
2023-03-27T18:58:00.135Z, 0
2023-03-27T19:00:00.157Z, 0
2023-03-27T19:02:00.181Z, 0
2023-03-27T19:04:00.117Z, 0
2023-03-27T19:06:00.128Z, 0
2023-03-27T19:08:00.112Z, 0
2023-03-27T19:10:00.130Z, 0
2023-03-27T19:12:00.144Z, 0
2023-03-27T19:14:00.125Z, 0
2023-03-27T19:16:00.140Z, 0
2023-03-27T19:18:00.206Z, 0
2023-03-27T19:20:00.174Z, 0
2023-03-27T19:22:00.108Z, 0
2023-03-27T19:24:00.161Z, 0
2023-03-27T19:26:00.108Z, 0
2023-03-27T19:28:00.072Z, 0
2023-03-27T19:30:00.110Z, 0
2023-03-27T19:32:00.061Z, 0
2023-03-27T19:34:00.070Z, 0
2023-03-27T19:36:00.128Z, 0
2023-03-27T19:38:00.074Z, 0
2023-03-27T19:40:00.099Z, 0
2023-03-27T19:42:00.059Z, 0
2023-03-27T19:44:00.580Z, 0
2023-03-27T19:46:14.270Z, 0
2023-03-27T19:48:00.131Z, 0
2023-03-27T19:50:00.071Z, 0
2023-03-27T19:52:00.045Z, 0
2023-03-27T19:54:00.106Z, 0
2023-03-27T19:56:00.112Z, 0
2023-03-27T19:58:00.139Z, 0
2023-03-27T20:00:00.192Z, 0
2023-03-27T20:02:00.270Z, 0
2023-03-27T20:04:00.188Z, 0
2023-03-27T20:06:06.497Z, 0
2023-03-27T20:08:00.135Z, 0
2023-03-27T20:10:00.165Z, 0
2023-03-27T20:12:00.167Z, 0
2023-03-27T20:14:00.120Z, 0
2023-03-27T20:16:00.420Z, 0
2023-03-27T20:18:00.305Z, 0
2023-03-27T20:20:00.210Z, 0
2023-03-27T20:22:00.160Z, 0
2023-03-27T20:24:00.166Z, 0
2023-03-27T20:26:00.360Z, 0
2023-03-27T20:28:00.104Z, 0
2023-03-27T20:30:00.103Z, 0
2023-03-27T20:32:00.095Z, 0
2023-03-27T20:34:00.131Z, 0
2023-03-27T20:36:00.341Z, 0
2023-03-27T20:38:00.082Z, 0
2023-03-27T20:40:00.051Z, 0
2023-03-27T20:42:00.216Z, 0
2023-03-27T20:44:00.051Z, 0
2023-03-27T20:46:00.288Z, 0
2023-03-27T20:48:00.137Z, 0
2023-03-27T20:50:00.100Z, 0
2023-03-27T20:52:00.057Z, 0
2023-03-27T20:54:00.105Z, 0
2023-03-27T20:56:00.463Z, 0
2023-03-27T20:58:00.118Z, 0
2023-03-27T21:00:00.140Z, 0
2023-03-27T21:02:00.151Z, 0
2023-03-27T21:04:00.113Z, 0
2023-03-27T21:06:00.505Z, 0
2023-03-27T21:08:00.153Z, 0
2023-03-27T21:10:00.153Z, 0
2023-03-27T21:12:00.166Z, 0
2023-03-27T21:14:00.129Z, 0
2023-03-27T21:16:00.457Z, 0
2023-03-27T21:18:00.169Z, 0
2023-03-27T21:20:00.210Z, 0
2023-03-27T21:22:00.121Z, 0
2023-03-27T21:24:00.128Z, 0
2023-03-27T21:26:00.231Z, 0
2023-03-27T21:28:00.152Z, 0
2023-03-27T21:30:00.140Z, 0
2023-03-27T21:32:00.185Z, 0
2023-03-27T21:34:00.127Z, 0
2023-03-27T21:36:00.390Z, 0
2023-03-27T21:38:00.115Z, 0
2023-03-27T21:40:00.156Z, 0
2023-03-27T21:42:00.118Z, 0
2023-03-27T21:44:00.115Z, 0
2023-03-27T21:46:00.452Z, 0
2023-03-27T21:48:00.253Z, 0
2023-03-27T21:50:00.119Z, 0
2023-03-27T21:52:00.115Z, 0
2023-03-27T21:54:00.160Z, 0
2023-03-27T21:56:00.270Z, 0
2023-03-27T21:58:00.126Z, 0
2023-03-27T22:00:00.147Z, 0
2023-03-27T22:02:00.127Z, 0
2023-03-27T22:04:00.154Z, 0
2023-03-27T22:06:10.769Z, 0
2023-03-27T22:08:00.131Z, 0
2023-03-27T22:10:00.160Z, 0
2023-03-27T22:12:00.139Z, 0
2023-03-27T22:14:00.129Z, 0
2023-03-27T22:16:00.294Z, 0
2023-03-27T22:18:00.237Z, 0
2023-03-27T22:20:00.156Z, 0
2023-03-27T22:22:00.122Z, 0
2023-03-27T22:24:00.227Z, 0
2023-03-27T22:26:00.204Z, 0
2023-03-27T22:28:01.846Z, 0
2023-03-27T22:30:00.088Z, 0
2023-03-27T22:32:00.124Z, 0
2023-03-27T22:34:00.102Z, 0
2023-03-27T22:36:00.413Z, 0
2023-03-27T22:38:00.117Z, 0
2023-03-27T22:40:00.110Z, 0
2023-03-27T22:42:00.123Z, 0
2023-03-27T22:44:00.107Z, 0
2023-03-27T22:46:00.238Z, 0
2023-03-27T22:48:00.210Z, 0
2023-03-27T22:50:00.063Z, 0
2023-03-27T22:52:00.045Z, 0
2023-03-27T22:54:00.104Z, 0
2023-03-27T22:56:00.528Z, 0
2023-03-27T22:58:00.106Z, 0
2023-03-27T23:00:00.204Z, 0
2023-03-27T23:02:00.166Z, 0
2023-03-27T23:04:00.247Z, 0
2023-03-27T23:06:00.306Z, 0
2023-03-27T23:08:00.114Z, 0
2023-03-27T23:10:00.112Z, 0
2023-03-27T23:12:00.156Z, 0
2023-03-27T23:14:00.167Z, 0
2023-03-27T23:16:00.320Z, 0
2023-03-27T23:18:00.267Z, 0
2023-03-27T23:20:00.160Z, 0
2023-03-27T23:22:00.122Z, 0
2023-03-27T23:24:00.153Z, 0
2023-03-27T23:26:00.285Z, 0
2023-03-27T23:28:00.112Z, 0
2023-03-27T23:30:00.120Z, 0
2023-03-27T23:32:00.123Z, 0
2023-03-27T23:34:00.095Z, 0
2023-03-27T23:36:00.272Z, 0
2023-03-27T23:38:00.045Z, 0
2023-03-27T23:40:00.047Z, 0
2023-03-27T23:42:00.042Z, 0
2023-03-27T23:44:00.093Z, 0
2023-03-27T23:46:00.339Z, 0
2023-03-27T23:48:00.217Z, 0
2023-03-27T23:50:00.129Z, 0
2023-03-27T23:52:00.073Z, 0
2023-03-27T23:54:00.118Z, 0
2023-03-27T23:56:00.450Z, 0
2023-03-27T23:58:00.134Z, 0
